createdAt,value
2022-09-06T00:01:39.998Z,2.95
2022-09-06T00:04:26.055Z,3.92
2022-09-06T00:07:12.212Z,2.70
2022-09-06T00:09:58.268Z,3.00
2022-09-06T00:12:44.363Z,2.83
2022-09-06T00:15:30.693Z,2.85
2022-09-06T00:18:16.570Z,2.50
2022-09-06T00:21:03.485Z,2.78
2022-09-06T00:23:50.060Z,2.78
2022-09-06T00:26:35.987Z,3.10
2022-09-06T00:29:21.920Z,2.78
2022-09-06T00:32:08.536Z,3.13
2022-09-06T00:34:54.468Z,2.60
2022-09-06T00:37:40.196Z,2.50
2022-09-06T00:40:29.533Z,2.67
2022-09-06T00:43:15.599Z,2.67
2022-09-06T00:46:03.626Z,2.72
2022-09-06T00:48:53.867Z,3.10
2022-09-06T00:51:39.832Z,2.72
2022-09-06T00:54:26.290Z,2.53
2022-09-06T00:57:12.563Z,3.08
2022-09-06T00:59:59.097Z,2.80
2022-09-06T01:02:45.378Z,2.47
2022-09-06T01:06:06.643Z,2.53
2022-09-06T01:09:22.874Z,2.35
2022-09-06T01:12:14.585Z,2.65
2022-09-06T01:15:17.894Z,2.50
2022-09-06T01:18:30.300Z,2.40
2022-09-06T01:21:38.846Z,2.60
2022-09-06T01:24:51.383Z,2.47
2022-09-06T01:27:52.781Z,2.42
2022-09-06T01:30:44.474Z,2.70
2022-09-06T01:34:03.864Z,2.65
2022-09-06T01:37:08.472Z,2.88
2022-09-06T01:39:56.358Z,2.50
2022-09-06T01:42:45.174Z,2.30
2022-09-06T01:45:49.277Z,2.72
2022-09-06T01:48:45.222Z,2.80
2022-09-06T01:51:56.079Z,2.40
2022-09-06T01:54:50.957Z,2.42
2022-09-06T01:57:39.790Z,2.40
2022-09-06T02:00:25.800Z,2.88
2022-09-06T02:03:25.695Z,2.40
2022-09-06T02:06:18.726Z,2.30
2022-09-06T02:09:11.740Z,2.30
2022-09-06T02:12:00.318Z,2.65
2022-09-06T02:14:59.973Z,2.67
2022-09-06T02:18:10.077Z,3.53
2022-09-06T02:21:01.720Z,2.60
2022-09-06T02:23:47.872Z,2.50
2022-09-06T02:26:38.140Z,2.67
2022-09-06T02:29:24.133Z,2.67
2022-09-06T02:32:22.312Z,2.20
2022-09-06T02:35:13.514Z,2.63
2022-09-06T02:37:59.435Z,2.78
2022-09-06T02:40:46.305Z,2.70
2022-09-06T02:43:32.173Z,2.92
2022-09-06T02:46:18.028Z,2.90
2022-09-06T02:49:04.305Z,2.55
2022-09-06T02:51:50.944Z,2.70
2022-09-06T02:54:36.916Z,2.63
2022-09-06T02:57:23.210Z,2.63
2022-09-06T03:00:09.913Z,2.58
2022-09-06T03:02:56.494Z,2.50
2022-09-06T03:05:43.087Z,2.22
2022-09-06T03:08:34.263Z,2.90
2022-09-06T03:11:20.259Z,4.82
2022-09-06T03:14:06.205Z,3.05
2022-09-06T03:16:52.357Z,2.88
2022-09-06T03:19:38.209Z,2.40
2022-09-06T03:22:24.340Z,2.47
2022-09-06T03:25:10.915Z,2.60
2022-09-06T03:27:56.638Z,2.88
2022-09-06T03:30:45.152Z,2.60
2022-09-06T03:33:31.177Z,2.80
2022-09-06T03:36:17.575Z,2.20
2022-09-06T03:39:03.714Z,2.40
2022-09-06T03:41:49.925Z,2.55
2022-09-06T03:44:39.967Z,2.72
2022-09-06T03:47:25.961Z,2.72
2022-09-06T03:50:14.168Z,2.40
2022-09-06T03:53:00.179Z,2.45
2022-09-06T03:55:51.128Z,2.55
2022-09-06T03:58:36.950Z,2.67
2022-09-06T04:01:23.071Z,3.30
2022-09-06T04:04:09.112Z,2.53
2022-09-06T04:07:13.107Z,3.00
2022-09-06T04:09:58.932Z,2.70
2022-09-06T04:12:45.506Z,3.38
2022-09-06T04:15:31.330Z,3.90
2022-09-06T04:18:18.152Z,3.20
2022-09-06T04:21:07.269Z,13.02
2022-09-06T04:23:53.912Z,5.82
2022-09-06T04:26:39.902Z,6.10
2022-09-06T04:29:26.048Z,4.95
2022-09-06T04:32:11.822Z,5.25
2022-09-06T04:34:57.729Z,6.20
2022-09-06T04:37:43.620Z,4.05
2022-09-06T04:40:32.126Z,3.60
2022-09-06T04:43:23.061Z,3.40
2022-09-06T04:46:25.326Z,3.70
2022-09-06T04:49:11.788Z,3.60
2022-09-06T04:51:58.259Z,2.85
2022-09-06T04:54:44.217Z,3.33
2022-09-06T04:57:30.665Z,3.13
2022-09-06T05:00:19.457Z,3.55
2022-09-06T05:03:06.298Z,3.22
2022-09-06T05:05:53.281Z,3.90
2022-09-06T05:08:41.087Z,2.92
2022-09-06T05:11:27.456Z,3.13
2022-09-06T05:14:13.293Z,3.50
2022-09-06T05:16:59.239Z,3.88
2022-09-06T05:19:45.289Z,3.75
2022-09-06T05:22:31.153Z,3.35
2022-09-06T05:25:17.102Z,3.65
2022-09-06T05:28:03.263Z,3.92
2022-09-06T05:31:11.934Z,4.13
2022-09-06T05:34:10.634Z,4.43
2022-09-06T05:36:56.631Z,4.47
2022-09-06T05:39:42.494Z,4.47
2022-09-06T05:42:28.577Z,4.32
2022-09-06T05:45:14.494Z,4.45
2022-09-06T05:48:00.555Z,4.68
2022-09-06T05:50:46.401Z,4.18
2022-09-06T05:53:36.901Z,3.55
2022-09-06T05:56:23.288Z,3.30
2022-09-06T05:59:09.511Z,3.72
2022-09-06T06:01:55.702Z,3.03
2022-09-06T06:04:41.820Z,3.47
2022-09-06T06:07:27.638Z,3.13
2022-09-06T06:10:13.468Z,3.33
2022-09-06T06:12:59.399Z,4.05
2022-09-06T06:15:45.027Z,3.30
2022-09-06T06:18:30.813Z,3.35
2022-09-06T06:21:20.434Z,2.88
2022-09-06T06:24:07.054Z,3.40
2022-09-06T06:26:52.769Z,3.80
2022-09-06T06:29:38.558Z,3.55
2022-09-06T06:32:24.209Z,4.50
2022-09-06T06:35:10.359Z,4.22
2022-09-06T06:37:57.076Z,4.70
2022-09-06T06:40:45.990Z,4.55
2022-09-06T06:43:36.401Z,10.82
2022-09-06T06:46:24.158Z,6.93
2022-09-06T06:49:09.924Z,7.82
2022-09-06T06:51:55.806Z,8.90
2022-09-06T06:54:41.838Z,10.10
2022-09-06T06:57:27.657Z,6.00
2022-09-06T07:00:13.876Z,4.88
2022-09-06T07:03:00.141Z,4.65
2022-09-06T07:08:54.391Z,4.93
2022-09-06T07:11:40.349Z,4.30
2022-09-06T07:14:26.318Z,5.13
2022-09-06T07:17:12.443Z,4.50
2022-09-06T07:20:14.509Z,5.70
2022-09-06T07:26:21.422Z,4.25
2022-09-06T07:29:07.853Z,4.97
2022-09-06T07:32:13.004Z,4.60
2022-09-06T07:34:58.818Z,4.35
2022-09-06T07:37:52.089Z,5.75
2022-09-06T07:40:38.144Z,4.55
2022-09-06T07:43:25.496Z,5.40
2022-09-06T07:46:15.670Z,5.03
2022-09-06T07:49:04.301Z,5.80
2022-09-06T07:51:50.251Z,7.28
2022-09-06T07:54:35.918Z,11.60
2022-09-06T07:57:21.740Z,7.70
2022-09-06T08:00:08.298Z,7.05
2022-09-06T08:02:57.372Z,10.60
2022-09-06T08:08:57.560Z,5.57
2022-09-06T08:11:43.921Z,5.82
2022-09-06T08:14:29.878Z,5.18
2022-09-06T08:17:15.706Z,4.72
2022-09-06T08:20:05.006Z,5.63
2022-09-06T08:22:50.922Z,7.90
2022-09-06T08:25:36.731Z,6.35
2022-09-06T08:28:25.583Z,4.88
2022-09-06T08:31:16.908Z,4.90
2022-09-06T08:34:03.092Z,4.75
2022-09-06T08:36:48.743Z,4.85
2022-09-06T08:39:34.918Z,4.35
2022-09-06T08:42:20.838Z,4.45
2022-09-06T08:45:12.518Z,5.13
2022-09-06T08:47:58.522Z,5.18
2022-09-06T08:51:12.507Z,6.53
2022-09-06T08:54:06.721Z,6.30
2022-09-06T08:57:11.406Z,5.03
2022-09-06T09:00:03.495Z,5.03
2022-09-06T09:02:53.860Z,5.13
2022-09-06T09:05:41.057Z,8.13
2022-09-06T09:08:29.701Z,5.10
2022-09-06T09:11:18.783Z,8.23
2022-09-06T09:14:13.582Z,8.10
2022-09-06T09:17:06.720Z,5.82
2022-09-06T09:19:56.158Z,5.68
2022-09-06T09:22:42.734Z,7.03
2022-09-06T09:25:33.030Z,6.75
2022-09-06T09:28:24.907Z,6.80
2022-09-06T09:31:10.992Z,7.50
2022-09-06T09:33:57.252Z,8.88
2022-09-06T09:39:51.588Z,5.88
2022-09-06T09:42:37.986Z,7.10
2022-09-06T09:45:29.466Z,8.90
2022-09-06T09:48:29.615Z,7.72
2022-09-06T09:51:27.689Z,7.13
2022-09-06T09:54:15.773Z,6.68
2022-09-06T09:57:02.094Z,6.00
2022-09-06T09:59:54.380Z,6.00
2022-09-06T10:02:42.047Z,5.80
2022-09-06T10:05:28.095Z,9.20
2022-09-06T10:08:14.375Z,6.60
2022-09-06T10:11:01.041Z,10.18
2022-09-06T10:13:46.829Z,9.77
2022-09-06T10:16:44.895Z,9.40
2022-09-06T10:19:40.980Z,6.32
2022-09-06T10:22:31.930Z,6.22
2022-09-06T10:25:38.423Z,8.32
2022-09-06T10:28:31.507Z,5.10
2022-09-06T10:32:07.161Z,5.00
2022-09-06T10:35:19.911Z,6.30
2022-09-06T10:42:54.668Z,6.75
2022-09-06T10:50:25.268Z,5.72
2022-09-06T10:53:27.510Z,6.13
2022-09-06T10:56:23.314Z,5.20
2022-09-06T11:02:44.231Z,4.95
2022-09-06T11:06:04.335Z,5.68
2022-09-06T11:09:03.227Z,6.20
2022-09-06T11:11:53.724Z,4.75
2022-09-06T11:14:40.825Z,4.53
2022-09-06T11:17:52.862Z,6.22
2022-09-06T11:20:47.076Z,3.70
2022-09-06T11:23:43.021Z,4.18
2022-09-06T11:26:34.708Z,4.55
2022-09-06T11:29:25.198Z,5.13
2022-09-06T11:32:29.745Z,4.28
2022-09-06T11:35:41.825Z,3.63
2022-09-06T11:38:28.842Z,4.55
2022-09-06T11:41:16.718Z,3.58
2022-09-06T11:44:04.217Z,3.38
2022-09-06T11:46:49.904Z,3.60
2022-09-06T11:49:37.553Z,2.63
2022-09-06T11:53:01.030Z,3.67
2022-09-06T11:55:52.539Z,3.20
2022-09-06T11:59:02.132Z,3.15
2022-09-06T12:02:02.785Z,5.93
2022-09-06T12:05:01.037Z,4.50
2022-09-06T12:08:14.965Z,5.32
2022-09-06T12:14:03.548Z,4.35
2022-09-06T12:16:59.142Z,4.40
2022-09-06T12:19:53.318Z,4.13
2022-09-06T12:22:40.470Z,4.00
2022-09-06T12:25:38.759Z,3.25
2022-09-06T12:28:47.573Z,3.50
2022-09-06T12:31:42.910Z,3.50
2022-09-06T12:34:34.656Z,3.30
2022-09-06T12:37:32.616Z,3.40
2022-09-06T12:40:20.195Z,3.50
2022-09-06T12:43:10.016Z,3.55
2022-09-06T12:45:56.268Z,3.50
2022-09-06T12:48:44.550Z,3.60
2022-09-06T12:51:30.415Z,4.13
2022-09-06T12:54:26.343Z,3.92
2022-09-06T12:57:23.937Z,4.30
2022-09-06T13:00:10.222Z,4.70
2022-09-06T13:03:21.541Z,4.40
2022-09-06T13:06:07.967Z,4.60
2022-09-06T13:08:57.053Z,4.90
2022-09-06T13:11:45.349Z,4.88
2022-09-06T13:14:32.609Z,4.55
2022-09-06T13:17:27.345Z,4.45
2022-09-06T13:20:23.957Z,4.80
2022-09-06T13:23:13.229Z,4.00
2022-09-06T13:25:59.296Z,4.30
2022-09-06T13:28:45.044Z,4.70
2022-09-06T13:31:31.826Z,4.60
2022-09-06T13:34:29.052Z,4.97
2022-09-06T13:37:15.098Z,4.97
2022-09-06T13:40:05.163Z,4.80
2022-09-06T13:43:00.520Z,5.05
2022-09-06T13:45:47.255Z,6.28
2022-09-06T13:48:33.929Z,5.20
2022-09-06T13:51:19.916Z,5.20
2022-09-06T13:54:11.872Z,5.07
2022-09-06T13:56:57.969Z,5.72
2022-09-06T13:59:44.057Z,5.50
2022-09-06T14:02:30.320Z,5.65
2022-09-06T14:05:16.796Z,4.82
2022-09-06T14:08:02.916Z,5.30
2022-09-06T14:10:49.698Z,5.30
2022-09-06T14:13:35.684Z,4.18
2022-09-06T14:16:21.986Z,4.70
2022-09-06T14:19:08.010Z,5.10
2022-09-06T14:21:54.062Z,5.80
2022-09-06T14:24:39.924Z,4.85
2022-09-06T14:27:25.674Z,6.35
2022-09-06T14:30:12.077Z,6.18
2022-09-06T14:32:58.151Z,11.63
2022-09-06T14:35:44.290Z,6.70
2022-09-06T14:38:30.332Z,6.43
2022-09-06T14:41:18.053Z,6.05
2022-09-06T14:44:04.367Z,6.00
2022-09-06T14:46:53.518Z,6.40
2022-09-06T14:49:39.305Z,5.00
2022-09-06T14:52:25.597Z,6.32
2022-09-06T14:55:12.679Z,5.13
2022-09-06T14:57:59.457Z,5.30
2022-09-06T15:00:46.670Z,5.00
2022-09-06T15:03:32.405Z,4.50
2022-09-06T15:06:20.344Z,4.30
2022-09-06T15:09:07.650Z,4.97
2022-09-06T15:11:54.103Z,4.85
2022-09-06T15:14:41.223Z,4.60
2022-09-06T15:17:27.241Z,4.40
2022-09-06T15:20:12.986Z,4.38
2022-09-06T15:23:15.145Z,5.72
2022-09-06T15:26:08.339Z,5.63
2022-09-06T15:28:54.694Z,5.22
2022-09-06T15:31:42.156Z,4.57
2022-09-06T15:34:28.251Z,4.55
2022-09-06T15:37:14.359Z,4.80
2022-09-06T15:40:00.328Z,5.80
2022-09-06T15:42:46.421Z,5.72
2022-09-06T15:45:47.259Z,5.85
2022-09-06T15:48:48.337Z,7.20
2022-09-06T15:51:35.870Z,6.65
2022-09-06T15:54:41.667Z,5.00
2022-09-06T15:57:28.965Z,6.22
2022-09-06T16:00:17.225Z,5.70
2022-09-06T16:03:03.464Z,5.15
2022-09-06T16:09:04.257Z,4.75
2022-09-06T16:11:50.011Z,4.97
2022-09-06T16:14:35.875Z,4.97
2022-09-06T16:17:22.393Z,6.00
2022-09-06T16:20:08.537Z,5.43
2022-09-06T16:22:54.369Z,5.97
2022-09-06T16:25:40.535Z,6.88
2022-09-06T16:28:29.033Z,6.90
2022-09-06T16:31:15.234Z,6.70
2022-09-06T16:34:01.459Z,5.85
2022-09-06T16:36:50.193Z,6.65
2022-09-06T16:39:37.245Z,6.55
2022-09-06T16:42:24.569Z,5.10
2022-09-06T16:45:12.067Z,6.20
2022-09-06T16:48:00.732Z,7.20
2022-09-06T16:50:46.976Z,7.38
2022-09-06T16:53:32.950Z,8.68
2022-09-06T16:56:21.447Z,7.32
2022-09-06T16:59:08.945Z,7.55
2022-09-06T17:01:56.187Z,10.27
2022-09-06T17:04:42.879Z,11.38
2022-09-06T17:07:28.753Z,9.23
2022-09-06T17:10:14.482Z,8.18
2022-09-06T17:13:00.559Z,6.78
2022-09-06T17:16:12.818Z,8.38
2022-09-06T17:18:59.976Z,10.45
2022-09-06T17:21:46.458Z,8.40
2022-09-06T17:24:32.616Z,8.55
2022-09-06T17:27:18.868Z,7.60
2022-09-06T17:30:05.293Z,8.65
2022-09-06T17:32:51.263Z,8.23
2022-09-06T17:35:37.677Z,8.15
2022-09-06T17:38:24.093Z,7.90
2022-09-06T17:41:24.243Z,10.27
2022-09-06T17:44:11.206Z,10.90
2022-09-06T17:47:12.067Z,11.25
2022-09-06T17:49:59.120Z,11.80
2022-09-06T17:52:46.001Z,10.73
2022-09-06T17:55:32.555Z,10.30
2022-09-06T17:58:20.031Z,10.48
2022-09-06T18:01:08.575Z,42.75
2022-09-06T18:03:54.696Z,26.25
2022-09-06T18:06:43.230Z,54.47
2022-09-06T18:09:29.434Z,103.88
2022-09-06T18:12:15.135Z,41.03
2022-09-06T18:15:02.365Z,39.45
2022-09-06T18:17:49.024Z,15.57
2022-09-06T18:20:36.100Z,11.98
2022-09-06T18:23:22.453Z,14.80
2022-09-06T18:26:08.735Z,10.80
2022-09-06T18:28:54.865Z,9.75
2022-09-06T18:31:41.624Z,13.15
2022-09-06T18:34:27.931Z,10.82
2022-09-06T18:37:14.605Z,12.45
2022-09-06T18:40:00.655Z,13.75
2022-09-06T18:42:47.202Z,10.13
2022-09-06T18:45:35.834Z,10.85
2022-09-06T18:48:21.719Z,10.98
2022-09-06T18:51:11.833Z,9.75
2022-09-06T18:53:59.712Z,11.20
2022-09-06T18:56:45.753Z,10.57
2022-09-06T18:59:31.672Z,8.68
2022-09-06T19:02:17.686Z,8.05
2022-09-06T19:05:03.826Z,8.80
2022-09-06T19:07:49.839Z,11.30
2022-09-06T19:10:35.914Z,10.38
2022-09-06T19:13:21.966Z,9.30
2022-09-06T19:16:09.672Z,9.60
2022-09-06T19:18:57.085Z,10.00
2022-09-06T19:21:43.181Z,9.90
2022-09-06T19:24:29.150Z,10.63
2022-09-06T19:27:15.344Z,10.25
2022-09-06T19:30:01.566Z,10.35
2022-09-06T19:32:47.935Z,10.25
2022-09-06T19:35:43.731Z,10.38
2022-09-06T19:39:02.109Z,9.85
2022-09-06T19:41:50.592Z,10.07
2022-09-06T19:44:37.051Z,10.23
2022-09-06T19:47:23.265Z,10.05
2022-09-06T19:50:09.250Z,10.32
2022-09-06T19:52:56.382Z,9.38
2022-09-06T19:55:42.391Z,11.52
2022-09-06T19:58:29.321Z,11.00
2022-09-06T20:01:18.118Z,12.80
2022-09-06T20:04:07.495Z,10.30
2022-09-06T20:06:53.607Z,7.50
2022-09-06T20:09:40.152Z,9.70
2022-09-06T20:12:25.911Z,8.93
2022-09-06T20:15:11.884Z,10.30
2022-09-06T20:17:57.974Z,10.52
2022-09-06T20:20:44.885Z,9.73
2022-09-06T20:23:32.456Z,9.38
2022-09-06T20:26:19.696Z,7.82
2022-09-06T20:29:06.581Z,8.38
2022-09-06T20:31:52.877Z,7.40
2022-09-06T20:34:38.654Z,7.22
2022-09-06T20:37:24.663Z,6.75
2022-09-06T20:40:11.415Z,7.20
2022-09-06T20:42:57.684Z,8.50
2022-09-06T20:45:45.914Z,8.10
2022-09-06T20:48:32.845Z,9.95
2022-09-06T20:51:21.219Z,9.90
2022-09-06T20:54:07.370Z,10.55
2022-09-06T20:56:54.181Z,11.00
2022-09-06T20:59:40.004Z,8.80
2022-09-06T21:02:26.043Z,9.55
2022-09-06T21:05:11.879Z,9.88
2022-09-06T21:07:58.071Z,8.95
2022-09-06T21:10:44.397Z,10.15
2022-09-06T21:13:30.667Z,8.30
2022-09-06T21:16:21.820Z,9.40
2022-09-06T21:21:57.083Z,11.15
2022-09-06T21:24:42.927Z,8.85
2022-09-06T21:27:29.015Z,9.05
2022-09-06T21:30:14.828Z,9.30
2022-09-06T21:33:01.016Z,9.15
2022-09-06T21:35:46.833Z,9.57
2022-09-06T21:38:38.451Z,8.18
2022-09-06T21:41:24.982Z,8.90
2022-09-06T21:44:11.388Z,8.00
2022-09-06T21:46:58.054Z,10.02
2022-09-06T21:49:44.032Z,7.25
2022-09-06T21:52:32.476Z,7.38
2022-09-06T21:55:18.361Z,8.70
2022-09-06T21:58:04.173Z,8.57
2022-09-06T22:00:54.024Z,6.68
2022-09-06T22:03:40.405Z,7.90
2022-09-06T22:06:31.232Z,7.18
2022-09-06T22:09:17.339Z,6.65
2022-09-06T22:12:04.058Z,6.80
2022-09-06T22:14:50.038Z,7.00
2022-09-06T22:17:36.159Z,7.25
2022-09-06T22:20:23.080Z,7.60
2022-09-06T22:23:09.994Z,6.57
2022-09-06T22:26:07.706Z,6.60
2022-09-06T22:29:01.331Z,7.93
2022-09-06T22:31:47.680Z,9.52
2022-09-06T22:34:34.118Z,7.03
2022-09-06T22:37:20.276Z,8.10
2022-09-06T22:40:06.905Z,10.05
2022-09-06T22:42:53.415Z,8.00
2022-09-06T22:45:39.423Z,9.48
2022-09-06T22:48:25.496Z,9.65
2022-09-06T22:51:11.762Z,8.93
2022-09-06T22:53:57.604Z,7.40
2022-09-06T22:56:43.680Z,9.27
2022-09-06T22:59:30.325Z,8.10
2022-09-06T23:02:16.402Z,7.30
2022-09-06T23:05:02.191Z,7.00
2022-09-06T23:07:49.689Z,7.43
2022-09-06T23:10:41.725Z,6.88
2022-09-06T23:13:27.789Z,6.70
2022-09-06T23:16:17.205Z,6.47
2022-09-06T23:19:03.469Z,6.95
2022-09-06T23:21:49.396Z,7.07
2022-09-06T23:24:35.428Z,6.68
2022-09-06T23:27:22.110Z,6.60
2022-09-06T23:30:08.812Z,6.00
2022-09-06T23:32:56.598Z,6.10
2022-09-06T23:35:43.716Z,6.47
2022-09-06T23:38:29.932Z,5.88
2022-09-06T23:41:16.273Z,6.43
2022-09-06T23:44:02.542Z,6.10
2022-09-06T23:46:48.469Z,6.22
2022-09-06T23:49:34.311Z,6.20
2022-09-06T23:52:20.142Z,5.90
2022-09-06T23:55:06.430Z,6.13
2022-09-06T23:57:52.600Z,5.85
